createdAt,value
2022-12-08T00:01:04.700Z,6.10
2022-12-08T00:03:31.273Z,6.30
2022-12-08T00:06:16.323Z,6.37
2022-12-08T00:09:01.271Z,6.27
2022-12-08T00:11:27.674Z,5.60
2022-12-08T00:13:54.055Z,6.10
2022-12-08T00:16:20.462Z,6.87
2022-12-08T00:18:46.976Z,6.60
2022-12-08T00:21:13.357Z,5.93
2022-12-08T00:23:39.723Z,6.20
2022-12-08T00:26:06.766Z,5.97
2022-12-08T00:28:34.400Z,6.10
2022-12-08T00:31:07.424Z,6.17
2022-12-08T00:33:33.903Z,5.27
2022-12-08T00:36:06.798Z,5.50
2022-12-08T00:38:33.227Z,5.53
2022-12-08T00:40:59.661Z,6.47
2022-12-08T00:43:26.740Z,5.30
2022-12-08T00:45:53.190Z,5.97
2022-12-08T00:48:19.641Z,5.80
2022-12-08T00:50:46.010Z,5.37
2022-12-08T00:53:12.377Z,5.23
2022-12-08T00:55:38.773Z,6.40
2022-12-08T00:58:05.171Z,5.87
2022-12-08T01:00:31.609Z,5.90
2022-12-08T01:02:58.017Z,5.87
2022-12-08T01:05:24.554Z,6.00
2022-12-08T01:07:51.079Z,6.03
2022-12-08T01:10:17.706Z,5.33
2022-12-08T01:12:44.120Z,5.30
2022-12-08T01:15:10.679Z,6.30
2022-12-08T01:17:37.949Z,6.80
2022-12-08T01:20:05.747Z,5.80
2022-12-08T01:22:34.846Z,5.70
2022-12-08T01:25:01.474Z,5.80
2022-12-08T01:27:27.885Z,7.17
2022-12-08T01:29:54.282Z,6.17
2022-12-08T01:32:20.714Z,6.07
2022-12-08T01:34:47.108Z,5.00
2022-12-08T01:37:13.562Z,5.70
2022-12-08T01:39:41.204Z,5.70
2022-12-08T01:42:20.078Z,5.40
2022-12-08T01:44:51.736Z,6.77
2022-12-08T01:47:18.364Z,5.47
2022-12-08T01:49:44.807Z,5.60
2022-12-08T01:52:16.569Z,5.30
2022-12-08T01:54:50.423Z,5.90
2022-12-08T01:57:23.301Z,5.27
2022-12-08T02:00:12.920Z,4.73
2022-12-08T02:02:59.316Z,5.47
2022-12-08T02:05:31.097Z,4.97
2022-12-08T02:07:58.568Z,5.60
2022-12-08T02:10:29.508Z,5.23
2022-12-08T02:12:58.585Z,5.00
2022-12-08T02:15:39.002Z,4.77
2022-12-08T02:18:19.467Z,4.70
2022-12-08T02:21:08.863Z,5.17
2022-12-08T02:23:54.266Z,5.20
2022-12-08T02:29:28.148Z,4.43
2022-12-08T02:32:21.787Z,4.53
2022-12-08T02:35:00.333Z,4.80
2022-12-08T02:37:32.530Z,4.50
2022-12-08T02:40:13.935Z,5.20
2022-12-08T02:42:47.296Z,4.73
2022-12-08T02:45:33.359Z,5.10
2022-12-08T02:48:00.301Z,4.53
2022-12-08T02:50:27.896Z,4.60
2022-12-08T02:52:54.815Z,5.00
2022-12-08T02:55:26.294Z,4.57
2022-12-08T02:58:11.953Z,4.40
2022-12-08T03:01:09.401Z,4.47
2022-12-08T03:03:48.066Z,6.10
2022-12-08T03:06:48.774Z,4.20
2022-12-08T03:09:40.085Z,4.03
2022-12-08T03:12:34.237Z,4.83
2022-12-08T03:15:08.672Z,3.90
2022-12-08T03:17:38.494Z,3.67
2022-12-08T03:20:10.925Z,4.80
2022-12-08T03:22:41.370Z,4.20
2022-12-08T03:25:10.219Z,4.07
2022-12-08T03:27:36.733Z,3.97
2022-12-08T03:30:03.874Z,4.17
2022-12-08T03:32:34.740Z,4.90
2022-12-08T03:35:09.369Z,4.70
2022-12-08T03:37:37.744Z,4.90
2022-12-08T03:40:06.349Z,4.57
2022-12-08T03:42:33.171Z,4.67
2022-12-08T03:44:59.606Z,4.60
2022-12-08T03:47:26.030Z,4.13
2022-12-08T03:49:52.452Z,3.87
2022-12-08T03:52:18.879Z,4.00
2022-12-08T03:54:45.283Z,3.77
2022-12-08T03:57:11.819Z,4.47
2022-12-08T03:59:38.241Z,3.53
2022-12-08T04:02:04.716Z,3.80
2022-12-08T04:04:31.188Z,4.10
2022-12-08T04:06:57.594Z,3.80
2022-12-08T04:09:24.066Z,3.93
2022-12-08T04:11:50.558Z,3.93
2022-12-08T04:14:17.017Z,3.60
2022-12-08T04:16:43.394Z,3.73
2022-12-08T04:19:09.802Z,4.13
2022-12-08T04:21:36.414Z,5.00
2022-12-08T04:24:02.942Z,5.67
2022-12-08T04:26:29.565Z,4.80
2022-12-08T04:28:56.022Z,4.70
2022-12-08T04:31:22.500Z,4.47
2022-12-08T04:33:49.066Z,4.40
2022-12-08T04:36:15.495Z,5.33
2022-12-08T04:38:41.955Z,4.17
2022-12-08T04:41:08.709Z,4.87
2022-12-08T04:43:36.041Z,4.53
2022-12-08T04:46:06.464Z,4.83
2022-12-08T04:48:32.905Z,5.10
2022-12-08T04:51:00.275Z,5.67
2022-12-08T04:53:27.118Z,4.83
2022-12-08T04:55:53.639Z,4.80
2022-12-08T04:58:20.589Z,5.97
2022-12-08T05:00:47.865Z,4.30
2022-12-08T05:03:15.225Z,4.53
2022-12-08T05:05:42.622Z,7.43
2022-12-08T05:08:11.012Z,8.90
2022-12-08T05:10:37.682Z,6.23
2022-12-08T05:13:04.227Z,6.60
2022-12-08T05:15:30.653Z,9.30
2022-12-08T05:17:57.134Z,10.57
2022-12-08T05:20:23.781Z,9.20
2022-12-08T05:22:50.271Z,8.60
2022-12-08T05:25:17.035Z,7.60
2022-12-08T05:27:43.782Z,6.40
2022-12-08T05:30:10.721Z,5.90
2022-12-08T05:32:37.230Z,6.87
2022-12-08T05:35:03.795Z,7.57
2022-12-08T05:37:30.402Z,6.13
2022-12-08T05:39:57.018Z,5.70
2022-12-08T05:42:25.076Z,6.20
2022-12-08T05:44:52.063Z,6.20
2022-12-08T05:47:18.521Z,5.70
2022-12-08T05:49:45.139Z,4.50
2022-12-08T05:52:11.573Z,6.07
2022-12-08T05:54:38.124Z,5.33
2022-12-08T05:57:04.514Z,4.97
2022-12-08T05:59:30.972Z,5.43
2022-12-08T06:01:57.434Z,5.97
2022-12-08T06:04:23.873Z,5.80
2022-12-08T06:06:50.238Z,5.17
2022-12-08T06:09:16.686Z,4.50
2022-12-08T06:11:43.266Z,3.90
2022-12-08T06:14:13.469Z,4.80
2022-12-08T06:16:39.968Z,4.17
2022-12-08T06:19:06.420Z,4.77
2022-12-08T06:21:32.883Z,3.57
2022-12-08T06:23:59.419Z,4.80
2022-12-08T06:26:25.878Z,4.50
2022-12-08T06:28:52.842Z,4.97
2022-12-08T06:31:26.608Z,4.30
2022-12-08T06:33:55.023Z,5.30
2022-12-08T06:36:24.891Z,5.10
2022-12-08T06:38:51.742Z,4.70
2022-12-08T06:41:18.799Z,4.50
2022-12-08T06:43:45.894Z,5.20
2022-12-08T06:46:15.409Z,5.40
2022-12-08T06:48:41.991Z,5.20
2022-12-08T06:51:14.634Z,4.93
2022-12-08T06:53:41.971Z,4.63
2022-12-08T06:56:09.365Z,6.40
2022-12-08T06:58:36.508Z,6.33
2022-12-08T07:01:11.554Z,7.50
2022-12-08T07:03:39.333Z,6.20
2022-12-08T07:06:06.803Z,5.80
2022-12-08T07:08:34.833Z,7.80
2022-12-08T07:11:07.628Z,7.63
2022-12-08T07:13:34.002Z,7.73
2022-12-08T07:16:00.366Z,9.60
2022-12-08T07:18:26.796Z,7.90
2022-12-08T07:20:53.201Z,7.97
2022-12-08T07:23:19.565Z,8.07
2022-12-08T07:25:45.943Z,8.40
2022-12-08T07:28:12.513Z,6.83
2022-12-08T07:30:39.285Z,8.00
2022-12-08T07:33:06.595Z,9.63
2022-12-08T07:35:35.066Z,9.33
2022-12-08T07:38:02.249Z,7.97
2022-12-08T07:40:28.956Z,8.10
2022-12-08T07:42:55.311Z,6.50
2022-12-08T07:45:24.599Z,6.60
2022-12-08T07:47:54.701Z,5.60
2022-12-08T07:50:21.111Z,6.03
2022-12-08T07:52:47.457Z,7.60
2022-12-08T07:55:13.919Z,7.20
2022-12-08T07:57:40.404Z,7.20
2022-12-08T08:00:07.712Z,7.53
2022-12-08T08:02:34.385Z,7.27
2022-12-08T08:05:00.949Z,6.40
2022-12-08T08:07:27.982Z,6.10
2022-12-08T08:09:54.407Z,6.70
2022-12-08T08:12:36.222Z,5.80
2022-12-08T08:15:05.322Z,6.20
2022-12-08T08:17:32.201Z,6.70
2022-12-08T08:19:58.874Z,6.70
2022-12-08T08:22:26.002Z,6.30
2022-12-08T08:24:53.139Z,6.07
2022-12-08T08:27:19.943Z,6.00
2022-12-08T08:29:46.387Z,6.17
2022-12-08T08:32:13.135Z,5.57
2022-12-08T08:34:39.574Z,5.70
2022-12-08T08:37:06.128Z,6.03
2022-12-08T08:39:32.778Z,9.70
2022-12-08T08:41:59.287Z,11.30
2022-12-08T08:44:25.822Z,10.40
2022-12-08T08:46:52.394Z,8.70
2022-12-08T08:49:18.961Z,8.83
2022-12-08T08:51:45.538Z,9.67
2022-12-08T08:54:12.025Z,9.87
2022-12-08T08:56:38.375Z,10.57
2022-12-08T08:59:05.238Z,9.13
2022-12-08T09:01:31.853Z,8.50
2022-12-08T09:03:58.832Z,8.03
2022-12-08T09:06:26.008Z,9.20
2022-12-08T09:08:52.520Z,10.60
2022-12-08T09:11:19.158Z,9.67
2022-12-08T09:13:50.122Z,9.10
2022-12-08T09:16:17.716Z,9.90
2022-12-08T09:18:44.299Z,10.33
2022-12-08T09:21:14.962Z,11.63
2022-12-08T09:23:41.393Z,11.93
2022-12-08T09:26:07.947Z,12.03
2022-12-08T09:28:34.689Z,10.50
2022-12-08T09:31:02.108Z,12.07
2022-12-08T09:33:28.680Z,10.00
2022-12-08T09:35:55.127Z,9.70
2022-12-08T09:38:21.716Z,10.70
2022-12-08T09:40:53.611Z,10.17
2022-12-08T09:43:41.650Z,8.80
2022-12-08T09:46:11.072Z,9.23
2022-12-08T09:48:45.385Z,8.93
2022-12-08T09:51:14.708Z,8.20
2022-12-08T09:53:46.436Z,10.30
2022-12-08T09:56:26.700Z,8.23
2022-12-08T09:59:08.323Z,9.37
2022-12-08T10:01:38.433Z,9.40
2022-12-08T10:04:18.821Z,10.47
2022-12-08T10:07:01.412Z,9.90
2022-12-08T10:09:39.301Z,8.73
2022-12-08T10:12:26.096Z,8.47
2022-12-08T10:15:17.030Z,7.63
2022-12-08T10:17:49.581Z,9.53
2022-12-08T10:20:18.598Z,10.03
2022-12-08T10:22:48.394Z,11.00
2022-12-08T10:25:33.090Z,10.70
2022-12-08T10:27:59.507Z,7.30
2022-12-08T10:30:26.149Z,6.43
2022-12-08T10:32:54.067Z,5.40
2022-12-08T10:35:22.170Z,4.57
2022-12-08T10:38:00.174Z,4.50
2022-12-08T10:40:42.148Z,5.03
2022-12-08T10:43:15.876Z,4.67
2022-12-08T10:45:43.194Z,4.80
2022-12-08T10:48:29.068Z,4.93
2022-12-08T10:50:57.936Z,4.53
2022-12-08T10:53:32.994Z,5.10
2022-12-08T10:56:02.354Z,4.83
2022-12-08T10:58:28.895Z,4.83
2022-12-08T11:00:58.945Z,4.90
2022-12-08T11:03:30.873Z,4.23
2022-12-08T11:06:02.736Z,4.27
2022-12-08T11:08:32.077Z,4.80
2022-12-08T11:10:58.576Z,4.87
2022-12-08T11:13:27.391Z,3.70
2022-12-08T11:15:55.293Z,4.20
2022-12-08T11:18:39.057Z,4.20
2022-12-08T11:21:15.648Z,3.53
2022-12-08T11:23:49.813Z,4.10
2022-12-08T11:26:27.782Z,3.90
2022-12-08T11:28:54.364Z,4.77
2022-12-08T11:31:49.672Z,4.33
2022-12-08T11:34:27.695Z,4.47
2022-12-08T11:36:56.209Z,4.30
2022-12-08T11:39:25.485Z,3.80
2022-12-08T11:41:54.406Z,3.93
2022-12-08T11:44:35.915Z,3.67
2022-12-08T11:47:08.525Z,4.20
2022-12-08T11:49:38.354Z,4.60
2022-12-08T11:52:29.889Z,4.20
2022-12-08T11:55:40.686Z,4.33
2022-12-08T11:58:21.349Z,3.97
2022-12-08T12:00:48.807Z,3.50
2022-12-08T12:03:29.672Z,3.30
2022-12-08T12:06:38.236Z,3.40
2022-12-08T12:09:13.330Z,3.80
2022-12-08T12:12:15.836Z,4.33
2022-12-08T12:15:13.657Z,4.60
2022-12-08T12:17:48.878Z,4.17
2022-12-08T12:20:30.212Z,4.10
2022-12-08T12:23:12.210Z,4.10
2022-12-08T12:25:49.623Z,7.93
2022-12-08T12:28:17.612Z,5.90
2022-12-08T12:30:58.490Z,4.50
2022-12-08T12:33:25.714Z,5.27
2022-12-08T12:35:56.309Z,4.37
2022-12-08T12:38:50.627Z,2.90
2022-12-08T12:41:25.639Z,3.10
2022-12-08T12:44:11.914Z,2.70
2022-12-08T12:46:42.379Z,3.30
2022-12-08T12:49:39.909Z,3.00
2022-12-08T12:52:15.185Z,3.13
2022-12-08T12:55:04.801Z,3.30
2022-12-08T12:57:54.789Z,2.73
2022-12-08T13:00:24.501Z,2.50
2022-12-08T13:02:53.077Z,3.10
2022-12-08T13:05:26.461Z,5.60
2022-12-08T13:07:57.339Z,4.90
2022-12-08T13:10:26.421Z,4.67
2022-12-08T13:13:12.140Z,3.80
2022-12-08T13:16:03.619Z,5.60
2022-12-08T13:18:46.269Z,5.03
2022-12-08T13:21:16.049Z,4.27
2022-12-08T13:23:49.223Z,4.30
2022-12-08T13:26:15.781Z,4.10
2022-12-08T13:29:08.516Z,3.50
2022-12-08T13:31:52.625Z,3.30
2022-12-08T13:34:45.203Z,3.20
2022-12-08T13:37:11.510Z,2.80
2022-12-08T13:39:44.569Z,2.83
2022-12-08T13:42:28.969Z,3.00
2022-12-08T13:55:06.871Z,2.27
2022-12-08T13:57:14.087Z,2.13
2022-12-08T13:59:45.355Z,1.77
2022-12-08T14:02:20.625Z,2.10
2022-12-08T14:05:17.668Z,2.93
2022-12-08T14:07:34.687Z,3.00
2022-12-08T14:10:03.529Z,2.40
2022-12-08T14:12:31.076Z,2.30
2022-12-08T14:15:15.143Z,2.37
2022-12-08T14:17:51.380Z,2.70
2022-12-08T14:20:27.308Z,2.57
2022-12-08T14:22:54.276Z,2.77
2022-12-08T14:25:22.039Z,2.50
2022-12-08T14:27:49.379Z,2.87
2022-12-08T14:30:21.067Z,2.73
2022-12-08T14:32:50.070Z,2.50
2022-12-08T14:35:24.178Z,4.67
2022-12-08T14:37:54.686Z,3.27
2022-12-08T14:40:35.263Z,2.77
2022-12-08T14:43:07.417Z,2.90
2022-12-08T14:45:56.153Z,2.77
2022-12-08T14:48:31.443Z,3.10
2022-12-08T14:51:04.007Z,3.50
2022-12-08T14:53:37.008Z,2.87
2022-12-08T14:56:31.195Z,3.13
2022-12-08T14:59:18.892Z,3.20
2022-12-08T15:01:46.289Z,4.10
2022-12-08T15:04:12.592Z,4.27
2022-12-08T15:07:04.555Z,4.40
2022-12-08T15:09:39.200Z,3.50
2022-12-08T15:12:12.610Z,3.90
2022-12-08T15:14:53.930Z,4.20
2022-12-08T15:17:31.471Z,3.33
2022-12-08T15:19:59.989Z,4.60
2022-12-08T15:22:27.191Z,6.40
2022-12-08T15:24:54.356Z,6.33
2022-12-08T15:27:23.128Z,6.37
2022-12-08T15:29:50.448Z,8.50
2022-12-08T15:32:19.926Z,10.90
2022-12-08T15:34:46.691Z,14.23
2022-12-08T15:37:31.235Z,15.13
2022-12-08T15:39:57.594Z,9.80
2022-12-08T15:42:24.053Z,7.73
2022-12-08T15:44:50.492Z,7.97
2022-12-08T15:47:19.789Z,8.77
2022-12-08T15:49:47.522Z,10.13
2022-12-08T15:52:19.705Z,7.70
2022-12-08T15:54:46.465Z,6.03
2022-12-08T16:09:21.601Z,5.20
2022-12-08T16:12:09.625Z,5.30
2022-12-08T16:17:24.903Z,6.17
2022-12-08T16:19:51.551Z,8.00
2022-12-08T16:25:23.049Z,26.90
2022-12-08T16:28:05.220Z,25.83
2022-12-08T16:30:32.300Z,19.17
2022-12-08T16:32:58.824Z,13.07
2022-12-08T16:35:25.256Z,12.50
2022-12-08T16:37:51.787Z,9.87
2022-12-08T16:40:18.347Z,8.10
2022-12-08T16:42:45.815Z,8.07
2022-12-08T16:45:21.758Z,7.57
2022-12-08T16:47:56.802Z,6.37
2022-12-08T16:50:32.456Z,7.23
2022-12-08T16:53:07.559Z,7.73
2022-12-08T16:55:34.636Z,7.73
2022-12-08T16:58:02.610Z,7.77
2022-12-08T17:00:30.273Z,6.83
2022-12-08T17:02:58.521Z,7.20
2022-12-08T17:05:25.908Z,6.40
2022-12-08T17:07:53.238Z,7.93
2022-12-08T17:10:23.272Z,9.07
2022-12-08T17:12:50.328Z,14.93
2022-12-08T17:15:19.203Z,18.00
2022-12-08T17:17:45.662Z,16.80
2022-12-08T17:20:15.201Z,16.27
2022-12-08T17:22:41.864Z,15.00
2022-12-08T17:25:08.925Z,12.57
2022-12-08T17:27:36.272Z,14.70
2022-12-08T17:30:03.192Z,9.70
2022-12-08T17:32:29.965Z,6.33
2022-12-08T17:34:56.522Z,5.50
2022-12-08T17:37:23.047Z,5.07
2022-12-08T17:39:49.477Z,7.13
2022-12-08T17:42:15.971Z,7.10
2022-12-08T17:44:42.557Z,8.30
2022-12-08T17:47:09.102Z,8.00
2022-12-08T17:49:35.531Z,8.90
2022-12-08T17:52:04.609Z,8.40
2022-12-08T17:54:31.353Z,9.90
2022-12-08T17:56:58.650Z,10.90
2022-12-08T17:59:26.480Z,14.70
2022-12-08T18:01:54.326Z,13.57
2022-12-08T18:04:21.211Z,12.53
2022-12-08T18:06:48.768Z,12.63
2022-12-08T18:09:16.042Z,11.20
2022-12-08T18:11:43.535Z,9.93
2022-12-08T18:14:10.831Z,10.30
2022-12-08T18:16:42.756Z,7.67
2022-12-08T18:19:10.037Z,6.33
2022-12-08T18:21:37.498Z,6.10
2022-12-08T18:24:04.640Z,6.87
2022-12-08T18:26:31.486Z,8.00
2022-12-08T18:28:58.427Z,7.93
2022-12-08T18:31:25.472Z,5.30
2022-12-08T18:33:52.454Z,5.30
2022-12-08T18:36:22.521Z,5.47
2022-12-08T18:38:49.675Z,5.03
2022-12-08T18:41:25.951Z,4.90
2022-12-08T18:43:57.022Z,3.77
2022-12-08T18:46:24.546Z,2.90
2022-12-08T18:48:51.933Z,3.40
2022-12-08T18:51:21.578Z,2.70
2022-12-08T18:53:48.447Z,3.20
2022-12-08T18:56:33.347Z,3.80
2022-12-08T18:59:06.437Z,3.53
2022-12-08T19:01:35.344Z,5.17
2022-12-08T19:04:27.519Z,4.17
2022-12-08T19:06:52.395Z,4.10
2022-12-08T19:09:19.993Z,4.60
2022-12-08T19:11:46.547Z,5.10
2022-12-08T19:14:13.009Z,5.63
2022-12-08T19:16:39.477Z,6.00
2022-12-08T19:19:06.034Z,4.80
2022-12-08T19:21:32.969Z,3.83
2022-12-08T19:23:59.962Z,3.70
2022-12-08T19:26:28.287Z,3.80
2022-12-08T19:28:55.118Z,4.20
2022-12-08T19:31:21.708Z,4.83
2022-12-08T19:33:48.201Z,4.87
2022-12-08T19:36:19.277Z,4.13
2022-12-08T19:39:04.633Z,3.40
2022-12-08T19:41:49.989Z,2.97
2022-12-08T19:44:42.588Z,3.00
2022-12-08T19:47:09.638Z,2.60
2022-12-08T19:49:36.499Z,3.57
2022-12-08T19:52:04.105Z,3.53
2022-12-08T19:54:30.583Z,4.40
2022-12-08T19:56:57.138Z,5.07
2022-12-08T19:59:26.365Z,4.30
2022-12-08T20:01:55.782Z,3.90
2022-12-08T20:04:23.219Z,3.97
2022-12-08T20:06:50.832Z,4.77
2022-12-08T20:09:17.709Z,4.80
2022-12-08T20:11:44.348Z,3.53
2022-12-08T20:14:10.758Z,3.43
2022-12-08T20:16:37.295Z,3.60
2022-12-08T20:19:04.214Z,3.83
2022-12-08T20:21:30.919Z,3.30
2022-12-08T20:23:57.420Z,4.17
2022-12-08T20:26:23.978Z,3.50
2022-12-08T20:28:50.739Z,3.80
2022-12-08T20:31:23.222Z,4.87
2022-12-08T20:33:49.815Z,4.73
2022-12-08T20:36:18.717Z,4.43
2022-12-08T20:38:46.210Z,4.13
2022-12-08T20:41:12.944Z,4.20
2022-12-08T20:43:39.370Z,4.20
2022-12-08T20:46:11.913Z,4.17
2022-12-08T20:48:38.437Z,5.00
2022-12-08T20:51:05.123Z,4.77
2022-12-08T20:53:31.659Z,4.60
2022-12-08T20:55:58.301Z,6.63
2022-12-08T20:58:24.722Z,5.70
2022-12-08T21:00:51.219Z,5.77
2022-12-08T21:03:18.759Z,5.90
2022-12-08T21:05:52.515Z,6.60
2022-12-08T21:08:19.897Z,5.97
2022-12-08T21:10:53.813Z,5.60
2022-12-08T21:13:20.560Z,5.33
2022-12-08T21:15:47.578Z,5.60
2022-12-08T21:18:16.231Z,5.97
2022-12-08T21:20:43.713Z,6.00
2022-12-08T21:23:10.498Z,6.03
2022-12-08T21:25:41.592Z,6.60
2022-12-08T21:28:08.150Z,5.40
2022-12-08T21:30:34.853Z,6.33
2022-12-08T21:33:01.399Z,6.13
2022-12-08T21:35:28.195Z,5.50
2022-12-08T21:37:54.637Z,5.93
2022-12-08T21:40:21.096Z,7.03
2022-12-08T21:42:47.650Z,7.93
2022-12-08T21:45:16.743Z,9.13
2022-12-08T21:47:44.736Z,9.17
2022-12-08T21:50:12.407Z,6.53
2022-12-08T21:52:40.834Z,6.20
2022-12-08T21:55:09.084Z,6.13
2022-12-08T21:57:35.567Z,6.40
2022-12-08T22:00:02.160Z,6.37
2022-12-08T22:02:28.870Z,6.60
2022-12-08T22:04:55.518Z,5.43
2022-12-08T22:07:22.171Z,6.33
2022-12-08T22:09:49.243Z,6.20
2022-12-08T22:12:16.802Z,5.73
2022-12-08T22:14:44.074Z,6.43
2022-12-08T22:17:11.236Z,6.03
2022-12-08T22:19:37.861Z,6.93
2022-12-08T22:22:04.685Z,7.50
2022-12-08T22:24:31.746Z,7.23
2022-12-08T22:26:58.457Z,6.33
2022-12-08T22:29:25.301Z,6.63
2022-12-08T22:31:51.908Z,6.57
2022-12-08T22:34:18.584Z,6.93
2022-12-08T22:36:45.144Z,6.00
2022-12-08T22:39:12.345Z,5.63
2022-12-08T22:41:39.534Z,6.53
2022-12-08T22:44:07.006Z,7.23
2022-12-08T22:46:34.189Z,6.60
2022-12-08T22:49:00.897Z,6.50
2022-12-08T22:51:27.761Z,6.43
2022-12-08T22:53:54.337Z,6.30
2022-12-08T22:56:20.897Z,7.10
2022-12-08T22:58:47.778Z,6.60
2022-12-08T23:01:26.171Z,7.10
2022-12-08T23:03:52.881Z,6.87
2022-12-08T23:06:19.718Z,7.27
2022-12-08T23:08:46.684Z,7.80
2022-12-08T23:11:13.612Z,6.60
2022-12-08T23:13:40.746Z,6.60
2022-12-08T23:16:11.745Z,7.10
2022-12-08T23:18:42.052Z,7.37
2022-12-08T23:21:12.300Z,6.10
2022-12-08T23:23:39.650Z,6.77
2022-12-08T23:26:16.037Z,7.07
2022-12-08T23:28:42.544Z,7.37
2022-12-08T23:31:09.375Z,6.70
2022-12-08T23:33:36.290Z,7.07
2022-12-08T23:36:02.775Z,7.10
2022-12-08T23:38:29.291Z,7.37
2022-12-08T23:41:00.602Z,6.50
2022-12-08T23:43:27.019Z,6.30
2022-12-08T23:45:53.497Z,6.33
2022-12-08T23:48:19.987Z,7.00
2022-12-08T23:50:46.598Z,7.50
2022-12-08T23:53:13.085Z,7.40
2022-12-08T23:55:39.580Z,6.60
2022-12-08T23:58:06.004Z,8.00
